Time;durP1;ratioP1;P1;durP2;ratioP2;P2;SDS_P1;SDS_P2;PMS_P1;PMS_P2;Temp;Humidity;BMP_temperature;BMP_pressure;BME280_temperature;BME280_humidity;BME280_pressure;Samples;Min_cycle;Max_cycle;Signal;HPM_P1;HPM_P2
2023/07/04 00:01:10;;;;;;;16.25;10.27;;;17.30;99.90;;;;;;5030947;28;20025;-79
2023/07/04 00:03:37;;;;;;;16.63;9.57;;;17.30;99.90;;;;;;5031013;28;20022;-79
2023/07/04 00:06:05;;;;;;;17.83;9.80;;;17.20;99.90;;;;;;5031093;28;20422;-79
2023/07/04 00:08:33;;;;;;;16.55;8.55;;;17.20;99.90;;;;;;5030792;28;20030;-79
2023/07/04 00:11:01;;;;;;;14.73;9.43;;;17.20;99.90;;;;;;5031023;28;20356;-79
2023/07/04 00:13:27;;;;;;;15.93;9.90;;;17.10;99.90;;;;;;5030854;28;20055;-79
2023/07/04 00:15:54;;;;;;;16.65;10.45;;;17.20;99.90;;;;;;5031940;28;20078;-79
2023/07/04 00:18:22;;;;;;;18.63;10.18;;;17.20;99.90;;;;;;5030845;28;20064;-79
2023/07/04 00:20:53;;;;;;;22.02;10.15;;;17.20;99.90;;;;;;5030585;28;20024;-79
2023/07/04 00:23:20;;;;;;;14.98;9.65;;;17.20;99.90;;;;;;5032051;28;20525;-79
2023/07/04 00:25:46;;;;;;;16.38;10.02;;;17.20;99.90;;;;;;5030802;28;20112;-79
2023/07/04 00:28:11;;;;;;;15.95;9.07;;;17.20;99.90;;;;;;5030689;28;20120;-79
2023/07/04 00:30:37;;;;;;;14.85;9.13;;;17.20;99.90;;;;;;5030452;28;20387;-79
2023/07/04 00:33:03;;;;;;;15.02;9.70;;;17.20;99.90;;;;;;5031796;28;20032;-79
2023/07/04 00:35:28;;;;;;;17.30;9.27;;;17.20;99.90;;;;;;5030484;28;20025;-79
2023/07/04 00:37:56;;;;;;;18.15;9.57;;;17.20;99.90;;;;;;5031683;28;20031;-79
2023/07/04 00:40:26;;;;;;;16.60;9.80;;;17.20;99.90;;;;;;5031444;28;20450;-79
2023/07/04 00:42:56;;;;;;;18.33;9.10;;;17.20;99.90;;;;;;5030455;28;20398;-78
2023/07/04 00:45:24;;;;;;;16.15;9.10;;;17.20;99.90;;;;;;5031892;28;20026;-79
2023/07/04 00:48:00;;;;;;;14.52;9.43;;;17.20;99.90;;;;;;5031529;28;20120;-79
2023/07/04 00:50:32;;;;;;;17.73;8.45;;;17.20;99.90;;;;;;5031570;28;20021;-79
2023/07/04 00:53:05;;;;;;;14.15;9.35;;;17.20;99.90;;;;;;5030068;28;20017;-78
2023/07/04 00:55:33;;;;;;;14.70;9.93;;;17.10;99.90;;;;;;5030224;28;20025;-79
2023/07/04 00:58:04;;;;;;;19.70;11.13;;;17.10;99.90;;;;;;5029969;28;20026;-78
2023/07/04 01:00:31;;;;;;;16.55;9.60;;;17.00;99.90;;;;;;5031234;28;20425;-79
2023/07/04 01:03:20;;;;;;;16.65;9.95;;;16.80;99.90;;;;;;5029881;28;20148;-78
2023/07/04 01:06:05;;;;;;;18.40;10.38;;;16.90;99.90;;;;;;5030382;28;20066;-79
2023/07/04 01:08:36;;;;;;;20.42;10.77;;;16.80;99.90;;;;;;5031333;28;20036;-79
2023/07/04 01:11:05;;;;;;;18.45;9.75;;;16.80;99.90;;;;;;5031338;28;20020;-79
2023/07/04 01:13:34;;;;;;;16.58;9.32;;;16.80;99.90;;;;;;5029805;28;20382;-79
2023/07/04 01:16:11;;;;;;;15.30;9.80;;;16.70;99.90;;;;;;5030165;28;20367;-79
2023/07/04 01:18:39;;;;;;;19.70;10.00;;;16.60;99.90;;;;;;5029872;28;20021;-79
2023/07/04 01:21:07;;;;;;;22.05;16.08;;;16.50;99.90;;;;;;5029809;28;20402;-78
2023/07/04 01:23:49;;;;;;;16.50;10.90;;;16.40;99.90;;;;;;5029898;28;20398;-79
2023/07/04 01:26:24;;;;;;;21.30;10.48;;;16.30;99.90;;;;;;5029848;28;20053;-78
2023/07/04 01:28:53;;;;;;;16.58;9.75;;;16.30;99.90;;;;;;5029515;28;20037;-79
2023/07/04 01:31:21;;;;;;;16.50;9.63;;;16.30;99.90;;;;;;5029749;28;20085;-79
2023/07/04 01:33:48;;;;;;;14.18;8.77;;;16.30;99.90;;;;;;5029514;28;20455;-79
2023/07/04 01:36:16;;;;;;;17.98;9.77;;;16.30;99.90;;;;;;5030760;28;20484;-79
2023/07/04 01:38:42;;;;;;;18.70;11.35;;;16.20;99.90;;;;;;5030747;28;20550;-78
2023/07/04 01:41:07;;;;;;;17.75;10.93;;;16.30;99.90;;;;;;5030700;28;20136;-78
2023/07/04 01:43:33;;;;;;;24.10;11.55;;;16.20;99.90;;;;;;5030620;28;20026;-78
2023/07/04 01:46:01;;;;;;;23.67;10.65;;;16.20;99.90;;;;;;5030706;28;20029;-78
2023/07/04 01:48:27;;;;;;;94.72;84.88;;;16.20;99.90;;;;;;5030631;28;20033;-78
2023/07/04 01:50:52;;;;;;;128.98;116.93;;;16.10;99.90;;;;;;5029378;28;20440;-78
2023/07/04 01:53:18;;;;;;;74.10;66.63;;;15.90;99.90;;;;;;5030561;28;20021;-79
2023/07/04 01:55:44;;;;;;;31.05;23.42;;;15.90;99.90;;;;;;5029131;28;20368;-79
2023/07/04 01:58:10;;;;;;;21.33;14.30;;;16.00;99.90;;;;;;5029231;28;20039;-78
2023/07/04 02:00:35;;;;;;;20.05;11.55;;;16.00;99.90;;;;;;5030347;28;20074;-78
2023/07/04 02:03:01;;;;;;;20.67;10.90;;;16.00;99.90;;;;;;5028606;28;20026;-78
2023/07/04 02:05:26;;;;;;;18.77;11.05;;;16.00;99.90;;;;;;5028908;28;20017;-78
2023/07/04 02:07:52;;;;;;;16.98;11.20;;;16.00;99.90;;;;;;5029020;28;20393;-78
2023/07/04 02:10:18;;;;;;;15.88;10.80;;;16.10;99.90;;;;;;5029061;28;20022;-79
2023/07/04 02:12:44;;;;;;;19.52;11.30;;;16.10;99.90;;;;;;5029072;28;20032;-79
2023/07/04 02:15:11;;;;;;;17.85;9.88;;;16.10;99.90;;;;;;5030353;28;20487;-79
2023/07/04 02:17:37;;;;;;;17.42;10.38;;;16.10;99.90;;;;;;5028996;28;20022;-79
2023/07/04 02:20:03;;;;;;;18.17;11.30;;;16.10;99.90;;;;;;5029033;28;20102;-80
2023/07/04 02:22:30;;;;;;;18.55;11.63;;;16.10;99.90;;;;;;5028889;28;20025;-80
2023/07/04 02:24:55;;;;;;;22.00;12.38;;;16.10;99.90;;;;;;5029073;28;20030;-78
2023/07/04 02:27:21;;;;;;;16.83;11.13;;;16.10;99.90;;;;;;5028978;28;20386;-78
2023/07/04 02:29:48;;;;;;;19.73;11.65;;;16.10;99.90;;;;;;5028873;28;20064;-81
2023/07/04 02:32:13;;;;;;;16.00;11.68;;;16.10;99.90;;;;;;5028869;28;20120;-80
2023/07/04 02:34:39;;;;;;;21.00;12.98;;;16.10;99.90;;;;;;5029003;28;20061;-80
2023/07/04 02:37:05;;;;;;;21.50;13.15;;;16.10;99.90;;;;;;5028734;28;20036;-78
2023/07/04 02:39:31;;;;;;;19.73;11.18;;;16.10;99.90;;;;;;5030156;28;20065;-78
2023/07/04 02:41:57;;;;;;;22.48;12.63;;;16.10;99.90;;;;;;5029913;28;20491;-79
2023/07/04 02:44:22;;;;;;;18.73;11.68;;;16.10;99.90;;;;;;5029914;28;20029;-78
2023/07/04 02:46:48;;;;;;;25.63;10.40;;;16.00;99.90;;;;;;5029992;28;20020;-79
2023/07/04 02:49:14;;;;;;;19.60;12.93;;;16.00;99.90;;;;;;5030085;28;20069;-80
2023/07/04 02:51:40;;;;;;;16.38;11.93;;;16.00;99.90;;;;;;5028620;28;20030;-79
2023/07/04 02:54:05;;;;;;;20.27;12.77;;;16.00;99.90;;;;;;5029801;28;20456;-78
2023/07/04 02:56:31;;;;;;;18.80;11.68;;;15.90;99.90;;;;;;5028645;28;20484;-80
2023/07/04 02:58:57;;;;;;;19.98;11.73;;;15.80;99.90;;;;;;5028579;28;20029;-79
2023/07/04 03:01:23;;;;;;;22.13;11.65;;;15.80;99.90;;;;;;5029842;28;20029;-79
2023/07/04 03:03:48;;;;;;;24.92;11.48;;;15.80;99.90;;;;;;5028567;28;20036;-78
2023/07/04 03:06:14;;;;;;;19.13;12.55;;;15.80;99.90;;;;;;5028508;28;20372;-80
2023/07/04 03:08:40;;;;;;;18.23;12.13;;;15.90;99.90;;;;;;5028418;28;20078;-79
2023/07/04 03:11:05;;;;;;;17.67;12.02;;;15.80;99.90;;;;;;5029536;28;20014;-81
2023/07/04 03:13:32;;;;;;;21.48;12.60;;;15.80;99.90;;;;;;5029575;28;20045;-79
2023/07/04 03:15:57;;;;;;;19.17;11.85;;;15.80;99.90;;;;;;5030760;28;20026;-79
2023/07/04 03:18:23;;;;;;;18.13;11.73;;;15.80;99.90;;;;;;5032961;28;20094;-78
2023/07/04 03:20:48;;;;;;;19.80;13.07;;;15.80;99.90;;;;;;5031123;28;20027;-78
2023/07/04 03:23:14;;;;;;;17.42;12.40;;;15.80;99.90;;;;;;5031807;28;20052;-79
2023/07/04 03:25:40;;;;;;;18.00;12.32;;;15.80;99.90;;;;;;5031479;28;20380;-80
2023/07/04 03:28:06;;;;;;;21.02;12.40;;;15.80;99.90;;;;;;5031320;28;20029;-78
2023/07/04 03:30:31;;;;;;;18.65;12.57;;;15.80;99.90;;;;;;5031511;28;20021;-79
2023/07/04 03:32:57;;;;;;;20.15;12.75;;;15.80;99.90;;;;;;5031480;28;20117;-78
2023/07/04 03:35:23;;;;;;;21.15;14.20;;;15.90;99.90;;;;;;5088817;27;20015;-79
2023/07/04 03:37:48;;;;;;;25.33;12.85;;;15.80;99.90;;;;;;5137020;27;20026;-79
2023/07/04 03:40:14;;;;;;;20.27;12.75;;;15.80;99.90;;;;;;5136916;27;20042;-79
2023/07/04 03:42:40;;;;;;;17.10;11.57;;;15.80;99.90;;;;;;5135667;27;20054;-78
2023/07/04 03:45:07;;;;;;;20.25;12.68;;;15.90;99.90;;;;;;5135739;27;20028;-79
2023/07/04 03:47:33;;;;;;;22.05;13.25;;;16.00;99.90;;;;;;5135367;27;20019;-79
2023/07/04 03:49:58;;;;;;;18.98;11.77;;;16.00;99.90;;;;;;5135407;27;20077;-78
2023/07/04 03:52:24;;;;;;;16.83;11.88;;;16.00;99.90;;;;;;5135409;27;20345;-79
2023/07/04 03:54:50;;;;;;;20.70;12.07;;;16.10;99.90;;;;;;5135514;27;20062;-79
2023/07/04 03:57:15;;;;;;;20.20;12.40;;;16.10;99.90;;;;;;5135502;27;20019;-80
2023/07/04 03:59:41;;;;;;;18.25;12.45;;;16.10;99.90;;;;;;5135454;27;20011;-80
2023/07/04 04:02:07;;;;;;;22.80;11.95;;;16.10;99.90;;;;;;5075868;27;20082;-80
2023/07/04 04:04:39;;;;;;;19.08;11.75;;;16.10;99.90;;;;;;5030887;28;20025;-79
2023/07/04 04:07:07;;;;;;;20.40;12.15;;;16.10;99.90;;;;;;5032302;28;20082;-79
2023/07/04 04:09:34;;;;;;;17.55;10.98;;;16.10;99.90;;;;;;5032184;28;20475;-80
2023/07/04 04:12:00;;;;;;;24.85;11.73;;;16.10;99.90;;;;;;5032148;28;20021;-80
2023/07/04 04:14:27;;;;;;;20.08;11.57;;;16.20;99.90;;;;;;5030723;28;20021;-79
2023/07/04 04:16:52;;;;;;;21.10;11.43;;;16.10;99.90;;;;;;5032003;28;20056;-79
2023/07/04 04:19:18;;;;;;;26.58;14.20;;;16.30;99.90;;;;;;5030802;28;20067;-79
2023/07/04 04:21:43;;;;;;;22.27;12.52;;;16.40;99.90;;;;;;5031858;28;20014;-80
2023/07/04 04:24:09;;;;;;;19.60;13.18;;;16.60;99.90;;;;;;5031809;28;20455;-81
2023/07/04 04:26:38;;;;;;;18.05;11.73;;;16.80;99.90;;;;;;5030074;28;20044;-80
2023/07/04 04:29:05;;;;;;;21.63;13.00;;;17.00;99.90;;;;;;5030558;28;20034;-80
2023/07/04 04:31:33;;;;;;;19.70;12.65;;;17.20;99.90;;;;;;5031906;28;20024;-81
2023/07/04 04:33:59;;;;;;;18.48;12.95;;;17.30;99.90;;;;;;5030591;28;20026;-79
2023/07/04 04:36:24;;;;;;;19.27;13.05;;;17.40;99.90;;;;;;5031706;28;20524;-79
2023/07/04 04:38:50;;;;;;;20.25;12.75;;;17.40;99.90;;;;;;5030445;28;20375;-80
2023/07/04 04:41:16;;;;;;;23.25;13.77;;;17.40;99.90;;;;;;5030139;28;20053;-79
2023/07/04 04:43:41;;;;;;;18.63;11.57;;;17.50;99.90;;;;;;5031634;28;20398;-79
2023/07/04 04:46:07;;;;;;;16.83;12.80;;;17.50;99.90;;;;;;5031504;28;20028;-79
2023/07/04 04:48:36;;;;;;;19.65;12.25;;;17.60;99.90;;;;;;5031552;28;20108;-79
2023/07/04 04:51:07;;;;;;;18.25;13.40;;;17.60;99.90;;;;;;5031929;28;20403;-79
2023/07/04 04:53:35;;;;;;;22.95;12.40;;;17.60;99.90;;;;;;5031630;28;20484;-79
2023/07/04 04:56:01;;;;;;;22.90;15.02;;;17.70;99.90;;;;;;5030178;28;20393;-80
2023/07/04 04:58:27;;;;;;;22.90;13.43;;;17.80;99.90;;;;;;5030226;28;20098;-79
2023/07/04 05:00:52;;;;;;;21.38;14.00;;;18.00;99.90;;;;;;5031323;28;20049;-80
2023/07/04 05:03:18;;;;;;;26.55;14.40;;;18.10;99.90;;;;;;5031245;28;20453;-80
2023/07/04 05:05:44;;;;;;;22.25;13.77;;;18.10;99.90;;;;;;5031137;28;20075;-80
2023/07/04 05:08:09;;;;;;;35.65;29.15;;;18.20;99.90;;;;;;5029718;28;20022;-80
2023/07/04 05:10:35;;;;;;;29.88;20.30;;;18.30;99.90;;;;;;5030104;28;20013;-80
2023/07/04 05:13:00;;;;;;;53.17;47.95;;;18.30;99.90;;;;;;5031827;28;20443;-81
2023/07/04 05:15:26;;;;;;;30.88;21.95;;;18.40;99.90;;;;;;5029909;28;20116;-81
2023/07/04 05:17:51;;;;;;;23.05;13.98;;;18.40;99.90;;;;;;5031140;28;20470;-80
2023/07/04 05:20:23;;;;;;;34.88;14.88;;;18.50;99.90;;;;;;5040079;28;20381;-79
2023/07/04 05:22:49;;;;;;;25.00;14.35;;;18.50;99.90;;;;;;5041360;28;20025;-80
2023/07/04 05:25:15;;;;;;;23.45;15.00;;;18.60;99.90;;;;;;5042343;28;20017;-80
2023/07/04 05:27:41;;;;;;;29.58;14.90;;;18.80;99.90;;;;;;5038548;28;20029;-79
2023/07/04 05:30:08;;;;;;;28.98;16.73;;;18.90;99.90;;;;;;5030644;28;20029;-79
2023/07/04 05:32:34;;;;;;;31.73;16.60;;;19.10;99.90;;;;;;5027630;28;20120;-79
2023/07/04 05:35:00;;;;;;;26.42;14.55;;;19.20;99.90;;;;;;5029170;28;20445;-79
2023/07/04 05:37:25;;;;;;;30.10;15.38;;;19.30;98.70;;;;;;5030360;28;20034;-79
2023/07/04 05:39:51;;;;;;;27.35;16.67;;;19.60;95.70;;;;;;5027286;28;20025;-79
2023/07/04 05:42:17;;;;;;;28.70;15.25;;;19.80;94.90;;;;;;5028456;28;20077;-80
2023/07/04 05:44:43;;;;;;;27.75;15.18;;;20.00;93.90;;;;;;5027270;28;20025;-79
2023/07/04 05:47:09;;;;;;;28.73;15.65;;;20.10;91.40;;;;;;5028262;28;20025;-79
2023/07/04 05:49:34;;;;;;;28.52;17.33;;;20.20;88.60;;;;;;5027431;28;20049;-80
2023/07/04 05:52:00;;;;;;;27.17;15.50;;;20.40;87.40;;;;;;5026497;28;20371;-80
2023/07/04 05:54:25;;;;;;;25.50;17.13;;;20.60;87.30;;;;;;5026929;28;20036;-79
2023/07/04 05:56:53;;;;;;;26.60;15.60;;;20.60;85.40;;;;;;5027150;28;20022;-79
2023/07/04 05:59:19;;;;;;;25.85;15.57;;;20.70;84.70;;;;;;5029296;28;20025;-79
2023/07/04 06:01:45;;;;;;;25.40;15.55;;;20.90;86.50;;;;;;5028704;28;20033;-80
2023/07/04 06:04:12;;;;;;;25.08;15.90;;;21.00;82.50;;;;;;5029339;28;20045;-80
2023/07/04 06:06:42;;;;;;;31.60;16.67;;;21.10;82.40;;;;;;5029003;28;20475;-79
2023/07/04 06:09:11;;;;;;;28.33;15.77;;;21.20;83.20;;;;;;5028959;28;20033;-80
2023/07/04 06:11:39;;;;;;;29.65;16.05;;;21.30;83.30;;;;;;5029774;28;20022;-79
2023/07/04 06:14:06;;;;;;;32.92;16.63;;;21.50;84.10;;;;;;5030096;28;20041;-80
2023/07/04 06:16:33;;;;;;;25.05;15.32;;;21.50;79.50;;;;;;5028817;28;20017;-79
2023/07/04 06:18:59;;;;;;;22.77;15.10;;;21.60;79.40;;;;;;5030863;28;20021;-80
2023/07/04 06:21:25;;;;;;;26.15;14.80;;;21.70;77.20;;;;;;5032739;28;20037;-79
2023/07/04 06:23:54;;;;;;;27.30;15.93;;;21.70;75.80;;;;;;5030020;28;20030;-79
2023/07/04 06:26:21;;;;;;;22.90;14.40;;;21.70;75.00;;;;;;5033934;28;20528;-79
2023/07/04 06:28:49;;;;;;;25.30;13.10;;;21.80;75.30;;;;;;5038781;28;20033;-80
2023/07/04 06:31:16;;;;;;;27.17;15.23;;;21.80;75.00;;;;;;5039584;28;20112;-79
2023/07/04 06:33:42;;;;;;;25.20;15.65;;;21.70;75.00;;;;;;5035305;28;20026;-79
2023/07/04 06:36:09;;;;;;;26.98;13.93;;;21.90;74.90;;;;;;5040938;28;20032;-79
2023/07/04 06:38:35;;;;;;;24.73;14.80;;;22.00;75.80;;;;;;5047701;28;20593;-79
2023/07/04 06:41:06;;;;;;;22.83;14.90;;;22.10;72.90;;;;;;5047824;28;20395;-79
2023/07/04 06:43:33;;;;;;;22.10;14.15;;;22.10;72.40;;;;;;5049692;28;20025;-79
2023/07/04 06:45:59;;;;;;;22.75;13.73;;;22.20;71.30;;;;;;5048024;28;20505;-79
2023/07/04 06:48:26;;;;;;;24.90;14.52;;;22.30;71.70;;;;;;5040218;28;20029;-78
2023/07/04 06:51:01;;;;;;;25.25;15.10;;;22.50;72.80;;;;;;5030534;28;20428;-78
2023/07/04 06:53:27;;;;;;;29.23;14.48;;;22.60;73.80;;;;;;5032021;28;20025;-79
2023/07/04 06:56:02;;;;;;;22.25;13.50;;;22.90;73.10;;;;;;5036550;28;20054;-79
2023/07/04 06:58:28;;;;;;;20.00;12.10;;;23.10;71.40;;;;;;5040859;28;20520;-79
2023/07/04 07:00:56;;;;;;;20.83;13.23;;;23.20;67.10;;;;;;5040686;28;20021;-77
2023/07/04 07:03:22;;;;;;;24.60;12.98;;;23.30;65.60;;;;;;5042096;28;20025;-78
2023/07/04 07:05:48;;;;;;;20.95;14.32;;;23.50;68.50;;;;;;5034418;28;20364;-78
2023/07/04 07:08:16;;;;;;;22.33;13.13;;;23.70;67.50;;;;;;5035960;28;20029;-77
2023/07/04 07:10:55;;;;;;;35.30;13.38;;;23.80;65.80;;;;;;5047773;28;20060;-77
2023/07/04 07:13:21;;;;;;;20.38;12.52;;;23.90;65.60;;;;;;5051901;28;20029;-77
2023/07/04 07:15:46;;;;;;;21.55;13.05;;;24.00;64.60;;;;;;5050785;28;20536;-77
2023/07/04 07:18:12;;;;;;;31.20;13.25;;;24.10;63.60;;;;;;5052155;28;20036;-78
2023/07/04 07:20:37;;;;;;;20.15;11.25;;;24.30;63.60;;;;;;5051790;28;20029;-79
2023/07/04 07:23:03;;;;;;;17.98;10.02;;;24.20;61.20;;;;;;5051869;28;20025;-80
2023/07/04 07:25:28;;;;;;;17.67;9.82;;;24.40;59.90;;;;;;5052433;28;20029;-79
2023/07/04 07:27:54;;;;;;;20.15;9.50;;;24.40;57.90;;;;;;5051218;28;20479;-79
2023/07/04 07:30:19;;;;;;;15.93;8.50;;;24.30;56.80;;;;;;5052435;28;20520;-77
2023/07/04 07:32:45;;;;;;;18.77;8.05;;;24.20;54.70;;;;;;5050861;28;20028;-79
2023/07/04 07:35:10;;;;;;;15.90;8.40;;;24.20;55.00;;;;;;5041754;27;20105;-77
2023/07/04 07:37:37;;;;;;;132.88;16.83;;;24.30;53.90;;;;;;5037703;28;20104;-79
2023/07/04 07:40:03;;;;;;;12.40;6.38;;;24.20;54.30;;;;;;5050779;28;20025;-77
2023/07/04 07:42:30;;;;;;;16.75;7.53;;;24.20;52.60;;;;;;5051368;28;20059;-77
2023/07/04 07:44:56;;;;;;;14.70;7.38;;;24.50;53.20;;;;;;5047090;28;20010;-80
2023/07/04 07:47:22;;;;;;;10.52;6.68;;;24.80;54.60;;;;;;5036407;28;20100;-77
2023/07/04 07:49:47;;;;;;;11.27;5.50;;;24.80;52.00;;;;;;5040858;28;20028;-78
2023/07/04 07:52:13;;;;;;;7.68;5.55;;;24.80;51.20;;;;;;5040233;28;20021;-78
2023/07/04 07:54:39;;;;;;;12.13;6.00;;;24.90;50.90;;;;;;5048367;28;20817;-79
2023/07/04 07:57:04;;;;;;;9.85;6.15;;;24.70;48.80;;;;;;5052480;28;20025;-79
2023/07/04 07:59:30;;;;;;;9.13;4.50;;;24.90;49.30;;;;;;5052283;28;20032;-77
2023/07/04 08:01:56;;;;;;;7.68;4.97;;;24.80;49.00;;;;;;5051050;28;20025;-77
2023/07/04 08:04:22;;;;;;;8.68;5.70;;;24.80;47.30;;;;;;5052148;28;20089;-77
2023/07/04 08:06:47;;;;;;;8.63;5.63;;;25.00;48.40;;;;;;5052095;28;20025;-77
2023/07/04 08:09:15;;;;;;;8.68;5.90;;;25.10;50.10;;;;;;5052044;28;20146;-77
2023/07/04 08:11:42;;;;;;;12.55;7.35;;;25.20;50.50;;;;;;5050685;28;20490;-80
2023/07/04 08:14:08;;;;;;;11.45;5.80;;;25.50;49.90;;;;;;5052295;28;20026;-81
2023/07/04 08:16:46;;;;;;;12.68;6.22;;;25.50;47.90;;;;;;5051979;28;20032;-77
2023/07/04 08:19:15;;;;;;;10.15;4.38;;;25.40;49.10;;;;;;5052098;28;20034;-79
2023/07/04 08:21:41;;;;;;;9.10;5.40;;;25.50;48.00;;;;;;5052062;28;20104;-77
2023/07/04 08:24:10;;;;;;;11.43;6.00;;;25.50;48.00;;;;;;5050740;28;20120;-80
2023/07/04 08:26:38;;;;;;;9.13;5.78;;;25.60;48.00;;;;;;5052102;28;20394;-77
2023/07/04 08:29:05;;;;;;;13.93;6.57;;;25.80;49.60;;;;;;5052038;28;20106;-77
2023/07/04 08:31:31;;;;;;;10.65;6.57;;;25.80;49.20;;;;;;5050562;28;20021;-79
2023/07/04 08:33:57;;;;;;;15.77;6.53;;;25.70;49.10;;;;;;5051855;28;20025;-78
2023/07/04 08:36:22;;;;;;;11.55;7.32;;;25.70;47.30;;;;;;5050332;28;20389;-80
2023/07/04 08:38:50;;;;;;;14.35;7.35;;;25.80;49.30;;;;;;5050386;28;20067;-79
2023/07/04 08:41:56;;;;;;;11.05;7.25;;;25.60;49.20;;;;;;5049432;28;20037;-80
2023/07/04 08:44:28;;;;;;;15.70;7.78;;;25.70;50.20;;;;;;5050486;28;20027;-79
2023/07/04 08:46:57;;;;;;;12.20;6.95;;;25.50;50.10;;;;;;5039819;28;20073;-80
2023/07/04 08:49:43;;;;;;;13.52;6.38;;;24.90;49.90;;;;;;5031599;28;20112;-80
2023/07/04 08:52:33;;;;;;;15.90;7.28;;;25.00;50.60;;;;;;5030337;28;20034;-80
2023/07/04 08:54:59;;;;;;;11.48;6.25;;;25.10;51.10;;;;;;5030644;28;20120;-80
2023/07/04 08:57:48;;;;;;;10.88;6.25;;;25.00;50.40;;;;;;5030384;28;20462;-79
2023/07/04 09:00:30;;;;;;;13.07;5.97;;;24.90;49.40;;;;;;5030258;28;20378;-80
2023/07/04 09:03:21;;;;;;;13.83;5.53;;;25.10;51.30;;;;;;5030139;28;20060;-80
2023/07/04 09:06:15;;;;;;;7.82;4.80;;;25.30;49.20;;;;;;5031304;28;20271;-79
2023/07/04 09:08:49;;;;;;;7.82;4.32;;;25.00;48.70;;;;;;5031074;28;20045;-79
2023/07/04 09:11:17;;;;;;;9.70;5.32;;;24.80;47.80;;;;;;5030008;28;20033;-80
2023/07/04 09:13:45;;;;;;;11.63;4.38;;;24.70;48.20;;;;;;5029949;28;20026;-79
2023/07/04 09:16:24;;;;;;;7.53;4.68;;;25.00;48.80;;;;;;5029915;28;20171;-80
2023/07/04 09:18:57;;;;;;;11.43;4.57;;;25.30;49.30;;;;;;5029869;28;20025;-80
2023/07/04 09:21:25;;;;;;;5.93;4.03;;;25.30;48.10;;;;;;5043982;28;20033;-80
2023/07/04 09:23:54;;;;;;;5.32;3.92;;;25.50;48.00;;;;;;5039507;28;20037;-79
2023/07/04 09:26:24;;;;;;;8.05;4.47;;;25.70;47.90;;;;;;5045119;28;20086;-81
2023/07/04 09:28:52;;;;;;;9.48;5.22;;;25.50;47.20;;;;;;5037472;28;20486;-80
2023/07/04 09:31:19;;;;;;;10.73;5.28;;;25.60;48.00;;;;;;5032296;28;20026;-81
2023/07/04 09:33:48;;;;;;;8.98;5.03;;;25.70;47.80;;;;;;5043899;28;20021;-79
2023/07/04 09:36:16;;;;;;;8.15;5.15;;;25.70;49.20;;;;;;5031876;28;20034;-80
2023/07/04 09:38:54;;;;;;;9.75;5.20;;;25.70;48.00;;;;;;5038186;28;20397;-80
2023/07/04 09:41:25;;;;;;;7.00;4.82;;;25.80;48.30;;;;;;5037413;28;20045;-80
2023/07/04 09:43:51;;;;;;;7.00;4.75;;;25.90;48.00;;;;;;5039896;28;20033;-81
2023/07/04 09:46:31;;;;;;;8.00;4.10;;;26.00;48.60;;;;;;5038739;28;20059;-80
2023/07/04 09:49:36;;;;;;;11.73;5.18;;;26.00;47.80;;;;;;5042623;28;20047;-80
2023/07/04 09:52:18;;;;;;;9.73;5.07;;;25.90;47.50;;;;;;5052230;28;20036;-80
2023/07/04 09:54:45;;;;;;;8.02;5.30;;;25.80;47.20;;;;;;5030959;28;20060;-79
2023/07/04 09:57:20;;;;;;;6.20;4.50;;;26.00;49.50;;;;;;5029177;28;20022;-80
2023/07/04 09:59:46;;;;;;;15.07;4.78;;;25.70;46.80;;;;;;5033250;28;20530;-80
2023/07/04 10:02:17;;;;;;;10.20;4.95;;;25.70;46.80;;;;;;5037367;28;20408;-80
2023/07/04 10:04:46;;;;;;;10.93;5.28;;;25.70;47.20;;;;;;5034789;28;20435;-81
2023/07/04 10:07:15;;;;;;;7.97;4.85;;;25.70;47.80;;;;;;5048690;28;20017;-81
2023/07/04 10:09:51;;;;;;;7.78;4.90;;;25.70;47.00;;;;;;5049176;28;20041;-79
2023/07/04 10:12:18;;;;;;;9.90;5.32;;;26.00;47.00;;;;;;5049263;28;20049;-82
2023/07/04 10:14:58;;;;;;;8.55;4.88;;;25.90;45.20;;;;;;5048817;28;20108;-80
2023/07/04 10:17:27;;;;;;;8.15;4.43;;;25.90;46.80;;;;;;5048930;28;20025;-80
2023/07/04 10:19:57;;;;;;;8.13;4.68;;;25.90;45.90;;;;;;5050416;28;20017;-80
2023/07/04 10:22:31;;;;;;;9.15;4.82;;;26.10;46.60;;;;;;5049290;28;20496;-80
2023/07/04 10:24:58;;;;;;;10.43;5.20;;;26.10;46.50;;;;;;5051611;28;20025;-81
2023/07/04 10:27:32;;;;;;;9.02;4.93;;;26.10;46.80;;;;;;5053940;28;20122;-80
2023/07/04 10:29:59;;;;;;;10.70;4.97;;;26.20;46.00;;;;;;5053805;28;20416;-80
2023/07/04 10:32:26;;;;;;;9.10;5.68;;;26.40;46.90;;;;;;5053700;28;20108;-80
2023/07/04 10:34:52;;;;;;;10.85;5.95;;;26.10;45.70;;;;;;5053781;28;20026;-80
2023/07/04 10:37:24;;;;;;;10.70;5.88;;;26.20;46.50;;;;;;5052348;28;20381;-81
2023/07/04 10:39:56;;;;;;;9.98;5.68;;;26.30;47.70;;;;;;5053955;28;20025;-80
2023/07/04 10:42:49;;;;;;;8.68;5.88;;;26.50;46.30;;;;;;5052349;28;20045;-80
2023/07/04 10:45:17;;;;;;;10.45;6.35;;;26.50;44.80;;;;;;5052379;28;20032;-80
2023/07/04 10:47:45;;;;;;;9.68;6.35;;;26.70;44.50;;;;;;5053558;28;20385;-80
2023/07/04 10:50:13;;;;;;;12.43;6.45;;;26.60;44.40;;;;;;5052191;28;20528;-80
2023/07/04 10:52:43;;;;;;;18.42;6.88;;;26.60;44.20;;;;;;5053729;28;20104;-81
2023/07/04 10:55:17;;;;;;;16.63;8.93;;;26.80;44.70;;;;;;5047801;28;20021;-80
2023/07/04 10:57:56;;;;;;;15.48;10.55;;;26.70;43.90;;;;;;5051983;28;20029;-80
2023/07/04 11:00:36;;;;;;;10.85;8.45;;;26.70;42.20;;;;;;5053213;28;20024;-79
2023/07/04 11:03:10;;;;;;;17.67;8.48;;;26.70;42.90;;;;;;5053313;28;20021;-81
2023/07/04 11:05:41;;;;;;;12.55;8.02;;;26.50;42.80;;;;;;5052999;28;20017;-80
2023/07/04 11:08:21;;;;;;;14.17;8.70;;;26.40;43.30;;;;;;5052678;28;20024;-82
2023/07/04 11:10:51;;;;;;;13.02;8.32;;;26.60;43.20;;;;;;5045495;28;20029;-81
2023/07/04 11:13:19;;;;;;;13.38;9.02;;;26.60;42.80;;;;;;5053595;28;20040;-82
2023/07/04 11:15:53;;;;;;;12.15;8.75;;;26.60;44.20;;;;;;5052964;28;20029;-82
2023/07/04 11:18:25;;;;;;;13.65;8.30;;;26.40;43.10;;;;;;5053252;28;20486;-80
2023/07/04 11:20:54;;;;;;;12.73;8.43;;;26.40;43.80;;;;;;5051367;28;20021;-81
2023/07/04 11:23:22;;;;;;;15.68;9.38;;;26.70;43.70;;;;;;5040857;28;20026;-81
2023/07/04 11:26:04;;;;;;;14.60;9.25;;;26.70;43.30;;;;;;5051847;28;20035;-80
2023/07/04 11:28:36;;;;;;;12.32;9.20;;;26.90;44.40;;;;;;5051287;28;20052;-81
2023/07/04 11:31:24;;;;;;;15.73;10.02;;;27.10;44.50;;;;;;5043584;28;20021;-81
2023/07/04 11:33:49;;;;;;;14.50;9.63;;;27.40;43.80;;;;;;5033716;28;20048;-81
2023/07/04 11:36:24;;;;;;;12.90;9.93;;;27.40;42.60;;;;;;5039938;28;20026;-81
2023/07/04 11:38:52;;;;;;;17.75;10.95;;;27.40;43.30;;;;;;5036092;28;20077;-80
2023/07/04 11:41:38;;;;;;;14.07;10.82;;;27.10;42.40;;;;;;5051068;28;20092;-81
2023/07/04 11:44:17;;;;;;;18.42;11.23;;;27.10;42.10;;;;;;5038008;28;20013;-79
2023/07/04 11:46:55;;;;;;;22.85;13.25;;;27.30;42.00;;;;;;5039230;28;20379;-80
2023/07/04 11:49:20;;;;;;;16.20;11.77;;;27.40;42.30;;;;;;5036241;28;20477;-79
2023/07/04 11:51:48;;;;;;;17.02;11.63;;;27.60;41.10;;;;;;5039763;28;20028;-79
2023/07/04 11:54:13;;;;;;;13.25;10.73;;;27.50;42.00;;;;;;5052516;28;20032;-80
2023/07/04 11:56:43;;;;;;;15.23;10.93;;;27.50;42.70;;;;;;5048453;28;20029;-79
2023/07/04 11:59:12;;;;;;;17.50;9.93;;;27.50;42.40;;;;;;5041875;28;20021;-79
2023/07/04 12:02:03;;;;;;;12.88;8.93;;;27.50;42.40;;;;;;5041941;28;20026;-80
2023/07/04 12:04:38;;;;;;;14.88;9.15;;;27.40;41.40;;;;;;5051413;28;20036;-80
2023/07/04 12:07:04;;;;;;;11.80;9.02;;;27.20;42.80;;;;;;5051054;28;20033;-79
2023/07/04 12:09:47;;;;;;;13.82;9.07;;;27.10;41.50;;;;;;5050732;28;20040;-79
2023/07/04 12:12:21;;;;;;;12.13;8.55;;;27.00;42.30;;;;;;5045105;28;20029;-80
2023/07/04 12:14:49;;;;;;;12.80;8.65;;;27.20;43.10;;;;;;5042116;28;20094;-80
2023/07/04 12:17:16;;;;;;;12.38;8.30;;;27.30;43.30;;;;;;5040858;28;20025;-80
2023/07/04 12:19:42;;;;;;;12.55;7.45;;;27.40;44.60;;;;;;5042733;28;20065;-80
2023/07/04 12:22:14;;;;;;;11.38;7.70;;;27.60;44.00;;;;;;5049938;28;20029;-80
2023/07/04 12:24:40;;;;;;;10.65;7.70;;;27.70;43.90;;;;;;5052173;28;20090;-80
2023/07/04 12:27:07;;;;;;;8.63;7.20;;;27.50;42.90;;;;;;5050582;28;20029;-80
2023/07/04 12:29:42;;;;;;;10.60;6.80;;;27.50;43.40;;;;;;5051779;28;20124;-80
2023/07/04 12:32:14;;;;;;;10.57;7.05;;;27.30;42.80;;;;;;5047170;28;20764;-80
2023/07/04 12:34:40;;;;;;;9.80;6.85;;;27.60;44.20;;;;;;5039641;28;20029;-80
2023/07/04 12:37:05;;;;;;;10.82;7.20;;;27.60;43.00;;;;;;5039293;28;20020;-80
2023/07/04 12:39:43;;;;;;;11.02;6.18;;;27.30;41.90;;;;;;5039843;28;20017;-80
2023/07/04 12:42:25;;;;;;;13.15;6.07;;;27.10;41.70;;;;;;5040925;28;20063;-81